createdAt,value
2022-12-17T21:03:11.937Z,9.18
2022-12-17T21:05:38.338Z,10.27
2022-12-17T21:09:35.978Z,9.32
2022-12-17T21:12:02.621Z,8.15
2022-12-17T21:14:35.322Z,8.52
2022-12-17T21:17:02.198Z,9.20
2022-12-17T21:19:33.451Z,9.35
2022-12-17T21:22:00.035Z,8.88
2022-12-17T21:24:26.327Z,8.35
2022-12-17T21:26:52.627Z,8.32
2022-12-17T21:29:19.023Z,8.82
2022-12-17T21:31:46.945Z,9.30
2022-12-17T21:34:18.107Z,9.27
2022-12-17T21:36:44.728Z,9.73
2022-12-17T21:39:12.123Z,11.10
2022-12-17T21:41:39.619Z,10.27
2022-12-17T21:44:12.296Z,9.85
2022-12-17T21:46:39.210Z,10.23
2022-12-17T21:49:05.640Z,10.27
2022-12-17T21:51:32.325Z,11.68
2022-12-17T21:54:00.686Z,9.82
2022-12-17T21:56:27.467Z,10.95
2022-12-17T21:59:00.901Z,11.90
2022-12-17T22:01:31.781Z,10.93
2022-12-17T22:03:59.767Z,10.48
2022-12-17T22:07:20.811Z,10.82
2022-12-17T22:10:37.782Z,10.60
2022-12-17T22:12:58.757Z,11.25
2022-12-17T22:15:25.768Z,10.88
2022-12-17T22:17:55.919Z,9.93
2022-12-17T22:20:23.306Z,11.27
2022-12-17T22:22:49.656Z,10.60
2022-12-17T22:25:16.278Z,10.95
2022-12-17T22:27:42.782Z,10.18
2022-12-17T22:30:31.105Z,11.27
2022-12-17T22:33:00.227Z,9.80
2022-12-17T22:41:40.088Z,11.43
2022-12-17T22:44:34.219Z,10.73
2022-12-17T22:44:49.039Z,10.48
2022-12-17T22:46:36.936Z,10.63
2022-12-17T22:49:03.271Z,10.57
